Hauptseite
METAR-TAF:

METAR-TAF

Flughäfen :

Harbin, China

Breite: 45-45N, Länge: 126-46E, Höhe: 143 m

Beobachtung

Neuester Wetterbericht von vor 1 Stunde und 5 Minuten, um 13:00 UTC
Wind 6 kt aus Süd
Temperatur 1°C
Luftfeuchtigkeit 64%
Luftdruck 1020 hPa
Sichtweite 10 km oder mehr
keine Wolken unter 1500 m und keine Kumulonimbus oder Gewitterwolken

METAR: ZYHB 241300Z 17003MPS CAVOK 01/M05 Q1020 NOSIG

Zeit: 22:05 (14:05 UTC)

Prognose

Neuester Wetterbericht von vor 5 Stunden und 2 Minuten, um 09:03 UTC
Gültige Prognose vom 24 um 12 UTC bis 25 um 12 UTC
Wind 8 kt aus Südwest
Sichtweite: 6000 m
Leicht bewölkt in der Höhe von 3000 ft

TAF: ZYHB 240903Z 2412/2512 23004MPS 6000 FEW030 TX09/2506Z TNM03/22Z

Wetterbeobachtungen und Prognosen von mehr als 4000 Flughäfen (METAR und TAF Bericht).

Die verfügbaren Stationen werden durch gelbe und rote Markierungen auf der Karte dargestellt.

Führen Sie die Maus auf sie, um den Namen der Station zu sehen.

Darauf klicken, um die Beobachtung von Wetterbeobachtungen und Prognosen zu sehen.

Um die Karte zu ändern : klicken Sie auf den grünen Tasten mit einem schwarzen Kreuz Zum Vergrößern, auf den grünen Button mit einem Gedankenstrich zu verkleinern, oder auf die grünen Pfeile für benachbarte Karten.


METAR-TAF: